createdAt,value
2023-03-21T00:00:28.965Z,24.03
2023-03-21T00:02:55.541Z,17.67
2023-03-21T00:05:22.604Z,17.37
2023-03-21T00:07:49.264Z,18.13
2023-03-21T00:10:23.857Z,17.73
2023-03-21T00:12:58.644Z,18.50
2023-03-21T00:15:39.315Z,18.60
2023-03-21T00:18:11.452Z,20.17
2023-03-21T00:20:38.067Z,18.27
2023-03-21T00:23:04.802Z,19.83
2023-03-21T00:25:32.962Z,19.13
2023-03-21T00:28:07.782Z,19.07
2023-03-21T00:30:34.806Z,16.73
2023-03-21T00:33:05.925Z,15.77
2023-03-21T00:36:02.535Z,17.00
2023-03-21T00:38:25.530Z,17.60
2023-03-21T00:40:52.755Z,26.33
2023-03-21T00:43:23.345Z,21.87
2023-03-21T00:45:51.447Z,22.47
2023-03-21T00:48:19.213Z,20.63
2023-03-21T00:50:47.136Z,26.23
2023-03-21T00:53:14.806Z,26.07
2023-03-21T00:55:41.976Z,27.47
2023-03-21T00:58:08.632Z,26.13
2023-03-21T01:00:39.222Z,29.10
2023-03-21T01:03:17.892Z,26.43
2023-03-21T01:06:07.200Z,26.87
2023-03-21T01:08:53.909Z,26.83
2023-03-21T01:11:26.173Z,23.13
2023-03-21T01:13:59.689Z,23.47
2023-03-21T01:16:34.614Z,25.70
2023-03-21T01:19:04.726Z,27.47
2023-03-21T01:21:32.101Z,23.03
2023-03-21T01:23:59.232Z,24.67
2023-03-21T01:26:25.893Z,20.87
2023-03-21T01:28:52.563Z,24.97
2023-03-21T01:31:19.538Z,22.53
2023-03-21T01:33:46.276Z,21.33
2023-03-21T01:36:22.352Z,23.83
2023-03-21T01:38:49.507Z,24.03
2023-03-21T01:41:26.202Z,33.17
2023-03-21T01:43:55.270Z,30.33
2023-03-21T01:46:53.945Z,24.27
2023-03-21T01:49:27.789Z,23.37
2023-03-21T01:52:12.176Z,21.23
2023-03-21T01:54:43.231Z,20.03
2023-03-21T01:57:13.639Z,21.03
2023-03-21T01:59:46.048Z,19.53
2023-03-21T02:02:18.168Z,19.90
2023-03-21T02:04:56.022Z,24.58
2023-03-21T02:07:29.348Z,18.80
2023-03-21T02:09:56.347Z,36.40
2023-03-21T02:12:23.295Z,42.13
2023-03-21T02:14:50.253Z,25.70
2023-03-21T02:17:24.969Z,42.90
2023-03-21T02:20:29.213Z,22.93
2023-03-21T02:23:16.894Z,18.93
2023-03-21T02:26:39.537Z,20.23
2023-03-21T02:29:21.886Z,19.17
2023-03-21T02:32:12.865Z,18.03
2023-03-21T02:34:54.868Z,17.27
2023-03-21T02:37:28.873Z,17.83
2023-03-21T02:40:09.770Z,12.50
2023-03-21T02:43:09.301Z,13.87
2023-03-21T02:46:13.103Z,12.80
2023-03-21T02:48:50.856Z,13.53
2023-03-21T02:51:20.515Z,14.87
2023-03-21T02:53:54.952Z,19.70
2023-03-21T02:56:31.423Z,14.33
2023-03-21T02:58:58.683Z,16.60
2023-03-21T03:01:26.052Z,14.50
2023-03-21T03:03:53.151Z,16.27
2023-03-21T03:06:22.932Z,14.73
2023-03-21T03:09:01.867Z,14.43
2023-03-21T03:11:37.095Z,13.50
2023-03-21T03:14:38.530Z,15.20
2023-03-21T03:17:15.679Z,14.93
2023-03-21T03:19:52.800Z,13.93
2023-03-21T03:22:57.965Z,16.57
2023-03-21T03:25:42.195Z,13.73
2023-03-21T03:28:09.717Z,10.43
2023-03-21T03:30:43.378Z,14.17
2023-03-21T03:33:12.003Z,12.57
2023-03-21T03:35:38.718Z,10.67
2023-03-21T03:38:07.077Z,13.80
2023-03-21T03:40:41.804Z,13.60
2023-03-21T03:43:15.976Z,11.07
2023-03-21T03:45:50.025Z,14.77
2023-03-21T03:48:25.296Z,13.40
2023-03-21T03:51:02.618Z,14.00
2023-03-21T03:53:34.016Z,14.47
2023-03-21T03:56:01.582Z,17.67
2023-03-21T03:58:42.917Z,18.37
2023-03-21T04:01:11.397Z,15.97
2023-03-21T04:03:48.990Z,16.13
2023-03-21T04:06:17.405Z,16.63
2023-03-21T04:08:44.559Z,18.93
2023-03-21T04:11:14.111Z,14.57
2023-03-21T04:13:41.188Z,15.93
2023-03-21T04:16:08.808Z,17.13
2023-03-21T04:18:35.976Z,20.00
2023-03-21T04:21:03.650Z,18.47
2023-03-21T04:23:30.350Z,19.70
2023-03-21T04:25:57.553Z,14.97
2023-03-21T04:28:24.305Z,25.97
2023-03-21T04:31:01.311Z,22.47
2023-03-21T04:33:31.610Z,16.23
2023-03-21T04:35:59.324Z,20.07
2023-03-21T04:38:30.750Z,24.63
2023-03-21T04:40:58.194Z,18.10
2023-03-21T04:43:24.758Z,19.63
2023-03-21T04:45:52.261Z,21.70
2023-03-21T04:48:19.850Z,21.00
2023-03-21T04:50:46.988Z,17.17
2023-03-21T04:53:13.576Z,21.40
2023-03-21T04:55:40.215Z,18.60
2023-03-21T04:58:06.780Z,20.07
2023-03-21T05:00:37.541Z,25.10
2023-03-21T05:03:09.285Z,19.07
2023-03-21T05:05:37.681Z,24.90
2023-03-21T05:08:05.383Z,27.90
2023-03-21T05:10:32.211Z,21.13
2023-03-21T05:12:58.840Z,20.57
2023-03-21T05:15:25.551Z,19.40
2023-03-21T05:17:52.182Z,20.00
2023-03-21T05:20:19.252Z,21.63
2023-03-21T05:22:46.336Z,19.47
2023-03-21T05:25:13.296Z,21.33
2023-03-21T05:27:45.355Z,19.57
2023-03-21T05:30:17.311Z,19.30
2023-03-21T05:32:44.056Z,19.17
2023-03-21T05:35:11.015Z,17.83
2023-03-21T05:37:38.547Z,20.40
2023-03-21T05:40:09.635Z,21.63
2023-03-21T05:42:36.362Z,19.60
2023-03-21T05:45:03.244Z,17.00
2023-03-21T05:47:30.049Z,24.80
2023-03-21T05:49:56.656Z,18.80
2023-03-21T05:52:23.506Z,19.43
2023-03-21T05:54:50.393Z,16.53
2023-03-21T05:57:19.249Z,17.53
2023-03-21T05:59:46.034Z,15.63
2023-03-21T06:02:13.114Z,17.47
2023-03-21T06:04:39.977Z,17.83
2023-03-21T06:07:06.587Z,20.07
2023-03-21T06:09:34.039Z,20.57
2023-03-21T06:12:01.120Z,18.15
2023-03-21T06:14:27.762Z,16.37
2023-03-21T06:16:54.491Z,14.73
2023-03-21T06:19:21.904Z,17.50
2023-03-21T06:21:49.286Z,18.00
2023-03-21T06:24:17.835Z,15.77
2023-03-21T06:26:45.070Z,14.10
2023-03-21T06:29:12.048Z,13.43
2023-03-21T06:31:38.734Z,12.53
2023-03-21T06:34:05.403Z,14.57
2023-03-21T06:36:32.251Z,14.10
2023-03-21T06:38:58.867Z,18.23
2023-03-21T06:41:25.502Z,14.87
2023-03-21T06:43:52.097Z,13.60
2023-03-21T06:46:18.743Z,16.00
2023-03-21T06:48:45.488Z,14.63
2023-03-21T06:51:13.581Z,15.33
2023-03-21T06:53:41.556Z,17.27
2023-03-21T06:56:09.662Z,32.90
2023-03-21T06:58:36.640Z,39.03
2023-03-21T07:01:04.400Z,14.73
2023-03-21T07:03:31.711Z,16.50
2023-03-21T07:05:58.656Z,18.80
2023-03-21T07:08:25.343Z,15.07
2023-03-21T07:10:56.313Z,15.60
2023-03-21T07:13:23.325Z,12.63
2023-03-21T07:15:49.994Z,10.47
2023-03-21T07:18:16.540Z,12.77
2023-03-21T07:20:48.403Z,10.27
2023-03-21T07:23:15.156Z,9.47
2023-03-21T07:25:42.351Z,9.17
2023-03-21T07:28:09.310Z,9.73
2023-03-21T07:30:36.917Z,11.13
2023-03-21T07:33:03.682Z,9.50
2023-03-21T07:35:30.644Z,9.23
2023-03-21T07:37:57.168Z,9.29
2023-03-21T07:40:23.804Z,11.83
2023-03-21T07:42:53.177Z,9.70
2023-03-21T07:45:25.269Z,9.77
2023-03-21T07:47:51.838Z,8.23
2023-03-21T07:50:18.715Z,11.03
2023-03-21T07:52:45.417Z,11.13
2023-03-21T07:55:12.487Z,12.00
2023-03-21T07:57:39.213Z,10.70
2023-03-21T08:00:07.063Z,11.67
2023-03-21T08:02:33.678Z,9.23
2023-03-21T08:05:00.290Z,12.27
2023-03-21T08:07:27.820Z,11.23
2023-03-21T08:09:54.447Z,11.07
2023-03-21T08:12:21.098Z,11.50
2023-03-21T08:14:48.020Z,11.33
2023-03-21T08:17:14.680Z,11.00
2023-03-21T08:19:41.357Z,12.07
2023-03-21T08:22:07.961Z,11.57
2023-03-21T08:24:34.537Z,14.47
2023-03-21T08:27:01.825Z,13.27
2023-03-21T08:29:28.591Z,12.23
2023-03-21T08:31:55.336Z,10.17
2023-03-21T08:34:23.220Z,9.87
2023-03-21T08:36:50.125Z,11.20
2023-03-21T08:39:16.758Z,10.57
2023-03-21T08:41:43.376Z,10.43
2023-03-21T08:44:10.594Z,9.53
2023-03-21T08:46:37.230Z,10.93
2023-03-21T08:49:04.065Z,11.27
2023-03-21T08:51:31.787Z,12.03
2023-03-21T08:53:58.389Z,10.73
2023-03-21T08:56:25.424Z,11.43
2023-03-21T08:58:52.027Z,9.93
2023-03-21T09:01:18.883Z,12.07
2023-03-21T09:03:45.976Z,8.63
2023-03-21T09:06:14.321Z,12.27
2023-03-21T09:08:42.052Z,12.17
2023-03-21T09:11:10.108Z,9.00
2023-03-21T09:13:36.983Z,10.10
2023-03-21T09:16:05.279Z,10.87
2023-03-21T09:18:50.720Z,9.27
2023-03-21T09:21:18.562Z,10.53
2023-03-21T09:23:45.421Z,13.23
2023-03-21T09:26:13.399Z,11.07
2023-03-21T09:28:40.630Z,13.23
2023-03-21T09:31:11.362Z,10.57
2023-03-21T09:33:40.457Z,12.80
2023-03-21T09:36:11.824Z,11.53
2023-03-21T09:38:40.684Z,13.43
2023-03-21T09:41:25.836Z,9.83
2023-03-21T09:43:58.919Z,11.10
2023-03-21T09:46:40.231Z,11.87
2023-03-21T09:49:17.724Z,10.03
2023-03-21T09:51:47.060Z,11.80
2023-03-21T09:54:19.144Z,14.63
2023-03-21T09:56:46.399Z,11.40
2023-03-21T09:59:27.557Z,10.63
2023-03-21T10:01:55.415Z,10.67
2023-03-21T10:04:22.925Z,12.13
2023-03-21T10:06:58.518Z,11.43
2023-03-21T10:09:27.239Z,11.23
2023-03-21T10:12:09.307Z,8.87
2023-03-21T10:14:47.212Z,12.70
2023-03-21T10:17:27.342Z,9.90
2023-03-21T10:20:18.735Z,10.10
2023-03-21T10:22:46.855Z,10.10
2023-03-21T10:25:16.492Z,9.53
2023-03-21T10:27:43.319Z,11.17
2023-03-21T10:30:39.546Z,11.80
2023-03-21T10:33:09.783Z,11.43
2023-03-21T10:35:38.154Z,8.30
2023-03-21T10:38:06.541Z,9.53
2023-03-21T10:40:34.987Z,8.80
2023-03-21T10:43:27.209Z,9.20
2023-03-21T10:45:55.810Z,9.33
2023-03-21T10:48:23.726Z,8.33
2023-03-21T10:50:53.258Z,8.73
2023-03-21T10:53:32.646Z,8.93
2023-03-21T10:56:00.693Z,9.47
2023-03-21T10:58:29.725Z,7.57
2023-03-21T11:00:58.343Z,9.17
2023-03-21T11:03:31.519Z,10.37
2023-03-21T11:06:08.848Z,9.63
2023-03-21T11:08:41.055Z,7.93
2023-03-21T11:11:09.743Z,12.43
2023-03-21T11:13:42.369Z,8.23
2023-03-21T11:16:23.199Z,11.23
2023-03-21T11:18:51.833Z,13.17
2023-03-21T11:21:19.149Z,15.67
2023-03-21T11:23:48.354Z,12.43
2023-03-21T11:26:27.282Z,10.10
2023-03-21T11:28:54.358Z,7.87
2023-03-21T11:31:21.603Z,14.03
2023-03-21T11:33:52.726Z,10.03
2023-03-21T11:36:19.410Z,11.67
2023-03-21T11:38:52.086Z,9.43
2023-03-21T11:41:29.493Z,9.70
2023-03-21T11:43:56.475Z,9.73
2023-03-21T11:46:25.635Z,13.40
2023-03-21T11:48:52.568Z,11.83
2023-03-21T11:51:37.973Z,10.40
2023-03-21T11:54:27.397Z,9.70
2023-03-21T11:56:58.719Z,8.83
2023-03-21T11:59:48.518Z,12.83
2023-03-21T12:02:27.013Z,8.73
2023-03-21T12:05:20.219Z,11.73
2023-03-21T12:08:08.573Z,9.37
2023-03-21T12:10:43.520Z,12.20
2023-03-21T12:13:13.612Z,12.07
2023-03-21T12:15:59.032Z,8.97
2023-03-21T12:18:37.805Z,11.23
2023-03-21T12:21:07.298Z,11.60
2023-03-21T12:23:43.056Z,8.70
2023-03-21T12:26:29.737Z,10.53
2023-03-21T12:29:11.401Z,9.87
2023-03-21T12:31:49.824Z,9.80
2023-03-21T12:34:28.956Z,11.80
2023-03-21T12:37:13.888Z,10.53
2023-03-21T12:39:41.125Z,11.23
2023-03-21T12:42:10.609Z,10.13
2023-03-21T12:44:44.501Z,8.47
2023-03-21T12:47:15.682Z,10.57
2023-03-21T12:50:14.580Z,13.57
2023-03-21T12:52:54.686Z,9.13
2023-03-21T12:55:33.909Z,13.20
2023-03-21T12:58:23.039Z,10.07
2023-03-21T13:00:58.778Z,10.70
2023-03-21T13:03:39.967Z,9.20
2023-03-21T13:06:09.858Z,8.83
2023-03-21T13:08:41.981Z,11.83
2023-03-21T13:11:10.801Z,11.90
2023-03-21T13:13:52.135Z,11.40
2023-03-21T13:16:27.632Z,13.93
2023-03-21T13:19:11.191Z,10.53
2023-03-21T13:21:46.523Z,11.20
2023-03-21T13:24:22.205Z,12.93
2023-03-21T13:27:02.534Z,9.17
2023-03-21T13:29:33.105Z,10.03
2023-03-21T13:32:08.811Z,10.80
2023-03-21T13:34:35.676Z,9.87
2023-03-21T13:37:02.952Z,10.93
2023-03-21T13:39:29.789Z,11.80
2023-03-21T13:42:02.727Z,9.50
2023-03-21T13:44:44.594Z,12.07
2023-03-21T13:47:31.758Z,11.60
2023-03-21T13:50:20.439Z,12.57
2023-03-21T13:53:02.298Z,17.23
2023-03-21T13:55:41.488Z,9.70
2023-03-21T13:58:24.665Z,8.60
2023-03-21T14:01:20.652Z,8.90
2023-03-21T14:03:48.046Z,9.47
2023-03-21T14:06:16.285Z,15.33
2023-03-21T14:08:46.597Z,8.97
2023-03-21T14:11:17.263Z,14.13
2023-03-21T14:13:51.218Z,10.33
2023-03-21T14:16:19.234Z,12.40
2023-03-21T14:18:54.493Z,10.13
2023-03-21T14:21:33.460Z,11.00
2023-03-21T14:24:13.427Z,15.47
2023-03-21T14:26:49.154Z,12.97
2023-03-21T14:29:33.669Z,9.53
2023-03-21T14:32:01.188Z,10.97
2023-03-21T14:34:30.307Z,14.10
2023-03-21T14:36:59.091Z,10.80
2023-03-21T14:39:28.954Z,11.63
2023-03-21T14:41:57.761Z,11.80
2023-03-21T14:44:28.127Z,10.90
2023-03-21T14:47:09.105Z,11.80
2023-03-21T14:49:37.676Z,11.47
2023-03-21T14:52:12.040Z,13.27
2023-03-21T14:54:44.403Z,10.30
2023-03-21T14:57:14.797Z,9.10
2023-03-21T14:59:42.339Z,9.20
2023-03-21T15:02:25.911Z,11.77
2023-03-21T15:04:54.750Z,15.37
2023-03-21T15:07:30.625Z,10.20
2023-03-21T15:10:00.995Z,9.97
2023-03-21T15:12:27.630Z,11.53
2023-03-21T15:14:54.892Z,14.07
2023-03-21T15:17:22.312Z,11.63
2023-03-21T15:19:48.867Z,10.67
2023-03-21T15:22:30.708Z,13.93
2023-03-21T15:25:01.874Z,15.47
2023-03-21T15:27:29.658Z,12.53
2023-03-21T15:29:56.965Z,12.87
2023-03-21T15:32:26.703Z,11.90
2023-03-21T15:35:06.150Z,11.10
2023-03-21T15:37:37.628Z,10.80
2023-03-21T15:40:21.196Z,12.43
2023-03-21T15:42:47.775Z,14.37
2023-03-21T15:45:21.709Z,13.03
2023-03-21T15:47:48.249Z,11.00
2023-03-21T15:50:24.104Z,9.87
2023-03-21T15:52:51.716Z,8.39
2023-03-21T15:55:28.991Z,10.73
2023-03-21T15:58:01.145Z,10.50
2023-03-21T16:00:34.279Z,17.83
2023-03-21T16:03:06.419Z,22.10
2023-03-21T16:05:33.980Z,18.23
2023-03-21T16:08:27.875Z,16.83
2023-03-21T16:10:54.494Z,16.87
2023-03-21T16:13:21.123Z,17.93
2023-03-21T16:15:47.703Z,11.77
2023-03-21T16:18:16.188Z,13.33
2023-03-21T16:20:45.146Z,15.25
2023-03-21T16:23:13.236Z,16.70
2023-03-21T16:25:40.943Z,106.47
2023-03-21T16:28:13.688Z,96.77
2023-03-21T16:30:40.546Z,101.70
2023-03-21T16:33:07.372Z,248.80
2023-03-21T16:35:33.979Z,130.40
2023-03-21T16:38:00.737Z,170.53
2023-03-21T16:40:33.992Z,294.87
2023-03-21T16:43:01.839Z,316.93
2023-03-21T16:45:30.422Z,269.20
2023-03-21T16:47:57.720Z,306.23
2023-03-21T16:50:29.700Z,121.40
2023-03-21T16:52:57.262Z,72.97
2023-03-21T16:55:24.509Z,30.70
2023-03-21T16:57:52.500Z,124.30
2023-03-21T17:00:23.211Z,161.80
2023-03-21T17:02:54.874Z,145.40
2023-03-21T17:05:25.700Z,115.93
2023-03-21T17:07:53.519Z,41.13
2023-03-21T17:10:23.448Z,44.90
2023-03-21T17:12:50.131Z,37.73
2023-03-21T17:15:17.344Z,36.03
2023-03-21T17:17:44.381Z,34.37
2023-03-21T17:20:25.972Z,28.97
2023-03-21T17:22:52.713Z,32.40
2023-03-21T17:25:20.606Z,29.13
2023-03-21T17:27:47.877Z,26.53
2023-03-21T17:30:14.892Z,24.37
2023-03-21T17:32:41.459Z,23.00
2023-03-21T17:35:08.337Z,27.07
2023-03-21T17:37:34.984Z,30.47
2023-03-21T17:40:12.236Z,28.53
2023-03-21T17:42:40.140Z,25.77
2023-03-21T17:45:07.514Z,23.43
2023-03-21T17:47:35.527Z,28.50
2023-03-21T17:50:03.796Z,26.77
2023-03-21T17:52:30.425Z,28.20
2023-03-21T17:54:56.961Z,41.77
2023-03-21T17:57:23.581Z,45.30
2023-03-21T17:59:50.190Z,45.88
2023-03-21T18:02:18.375Z,29.07
2023-03-21T18:04:45.126Z,31.27
2023-03-21T18:07:19.565Z,27.43
2023-03-21T18:09:51.106Z,31.45
2023-03-21T18:12:17.694Z,34.57
2023-03-21T18:14:45.735Z,26.73
2023-03-21T18:17:12.420Z,25.83
2023-03-21T18:19:39.006Z,28.27
2023-03-21T18:22:06.192Z,29.67
2023-03-21T18:24:32.828Z,25.23
2023-03-21T18:26:59.462Z,23.23
2023-03-21T18:32:12.856Z,24.17
2023-03-21T18:34:39.813Z,26.23
2023-03-21T18:37:08.553Z,26.37
2023-03-21T18:39:35.575Z,24.77
2023-03-21T18:42:03.737Z,23.70
2023-03-21T18:44:39.255Z,23.43
2023-03-21T18:47:07.539Z,25.50
2023-03-21T18:52:22.368Z,21.53
2023-03-21T18:54:49.315Z,26.07
2023-03-21T18:57:35.593Z,22.27
2023-03-21T19:00:23.615Z,24.57
2023-03-21T19:03:09.930Z,22.03
2023-03-21T19:05:43.045Z,23.67
2023-03-21T19:08:09.600Z,23.00
2023-03-21T19:10:37.573Z,22.67
2023-03-21T19:13:04.489Z,26.00
2023-03-21T19:15:32.326Z,23.23
2023-03-21T19:20:46.947Z,22.30
2023-03-21T19:23:13.868Z,27.37
2023-03-21T19:25:40.572Z,35.03
2023-03-21T19:28:07.230Z,25.80
2023-03-21T19:30:34.784Z,24.10
2023-03-21T19:33:01.698Z,26.33
2023-03-21T19:35:28.884Z,29.97
2023-03-21T19:37:55.634Z,172.50
2023-03-21T19:40:22.226Z,87.80
2023-03-21T19:42:48.945Z,315.93
2023-03-21T19:45:15.534Z,292.73
2023-03-21T19:47:42.235Z,52.33
2023-03-21T19:52:57.007Z,28.07
2023-03-21T19:55:23.785Z,29.00
2023-03-21T19:57:50.679Z,25.30
2023-03-21T20:00:18.705Z,26.67
2023-03-21T20:02:45.511Z,26.40
2023-03-21T20:05:13.493Z,24.73
2023-03-21T20:07:40.368Z,27.40
2023-03-21T20:10:08.851Z,25.93
2023-03-21T20:12:36.297Z,22.33
2023-03-21T20:15:16.555Z,24.97
2023-03-21T20:17:44.204Z,26.00
2023-03-21T20:20:14.871Z,29.40
2023-03-21T20:23:05.703Z,28.73
2023-03-21T20:25:29.387Z,31.67
2023-03-21T20:28:12.688Z,27.90
2023-03-21T20:30:49.683Z,25.83
2023-03-21T20:33:16.698Z,30.53
2023-03-21T20:36:29.482Z,29.87
2023-03-21T20:38:32.966Z,24.13
2023-03-21T20:41:04.526Z,22.23
2023-03-21T20:46:18.588Z,26.30
2023-03-21T20:48:48.825Z,24.17
2023-03-21T20:52:27.492Z,22.93
2023-03-21T20:54:02.524Z,24.27
2023-03-21T20:56:30.564Z,23.97
2023-03-21T20:59:12.151Z,24.93
2023-03-21T21:01:43.274Z,28.83
2023-03-21T21:04:10.315Z,24.20
2023-03-21T21:06:37.075Z,26.00
2023-03-21T21:09:04.524Z,21.27
2023-03-21T21:14:17.830Z,26.03
2023-03-21T21:16:44.958Z,24.97
2023-03-21T21:19:11.577Z,32.43
2023-03-21T21:21:38.189Z,24.07
2023-03-21T21:24:07.447Z,30.20
2023-03-21T21:26:34.655Z,29.50
2023-03-21T21:29:01.717Z,30.07
2023-03-21T21:31:28.549Z,30.83
2023-03-21T21:33:55.182Z,26.73
2023-03-21T21:36:23.294Z,30.90
2023-03-21T21:38:50.167Z,28.30
2023-03-21T21:41:21.552Z,32.57
2023-03-21T21:43:48.258Z,32.77
2023-03-21T21:46:14.881Z,28.57
2023-03-21T21:48:42.217Z,29.60
2023-03-21T21:51:09.478Z,30.13
2023-03-21T21:53:36.608Z,27.43
2023-03-21T21:56:06.621Z,33.77
2023-03-21T21:58:46.120Z,27.73
2023-03-21T22:01:12.848Z,29.73
2023-03-21T22:03:46.016Z,28.27
2023-03-21T22:06:12.851Z,32.37
2023-03-21T22:08:39.490Z,31.20
2023-03-21T22:11:06.676Z,35.00
2023-03-21T22:13:33.359Z,35.37
2023-03-21T22:15:59.937Z,32.60
2023-03-21T22:18:26.613Z,29.67
2023-03-21T22:20:53.367Z,29.53
2023-03-21T22:23:20.041Z,30.00
2023-03-21T22:25:51.812Z,28.60
2023-03-21T22:28:22.193Z,26.33
2023-03-21T22:30:49.100Z,27.80
2023-03-21T22:33:15.780Z,25.93
2023-03-21T22:35:42.385Z,29.57
2023-03-21T22:38:08.987Z,27.77
2023-03-21T22:40:35.601Z,30.13
2023-03-21T22:43:02.216Z,31.43
2023-03-21T22:45:28.807Z,27.77
2023-03-21T22:47:55.504Z,31.10
2023-03-21T22:50:22.083Z,30.00
2023-03-21T22:52:48.637Z,31.77
2023-03-21T22:55:15.412Z,30.23
2023-03-21T22:57:41.956Z,29.03
2023-03-21T23:00:13.265Z,31.43
2023-03-21T23:02:42.908Z,29.57
2023-03-21T23:05:10.342Z,32.70
2023-03-21T23:07:37.728Z,32.17
2023-03-21T23:10:05.391Z,34.77
2023-03-21T23:12:32.298Z,37.03
2023-03-21T23:14:58.859Z,42.73
2023-03-21T23:17:26.718Z,37.93
2023-03-21T23:19:53.282Z,34.83
2023-03-21T23:22:19.829Z,39.60
2023-03-21T23:24:47.111Z,48.17
2023-03-21T23:27:14.337Z,43.80
2023-03-21T23:29:40.956Z,46.40
2023-03-21T23:32:07.572Z,46.47
2023-03-21T23:34:34.170Z,43.77
2023-03-21T23:37:00.861Z,44.30
2023-03-21T23:39:28.333Z,45.03
2023-03-21T23:41:55.098Z,49.40
2023-03-21T23:44:21.647Z,49.17
2023-03-21T23:46:48.213Z,49.17
2023-03-21T23:49:15.503Z,51.57
2023-03-21T23:51:42.280Z,53.63
2023-03-21T23:54:08.870Z,51.60
2023-03-21T23:56:36.485Z,52.17
2023-03-21T23:59:03.745Z,54.10
